createdAt,value
2023-02-11T00:01:36.212Z,26.98
2023-02-11T00:04:06.675Z,25.65
2023-02-11T00:06:39.268Z,24.52
2023-02-11T00:09:07.780Z,24.77
2023-02-11T00:11:35.871Z,26.08
2023-02-11T00:14:09.501Z,24.33
2023-02-11T00:16:37.283Z,26.65
2023-02-11T00:19:06.500Z,25.45
2023-02-11T00:21:36.059Z,25.90
2023-02-11T00:24:06.196Z,26.10
2023-02-11T00:26:36.560Z,28.42
2023-02-11T00:29:05.976Z,24.95
2023-02-11T00:31:35.007Z,24.58
2023-02-11T00:34:03.154Z,25.95
2023-02-11T00:36:31.630Z,25.52
2023-02-11T00:39:00.463Z,26.85
2023-02-11T00:41:29.370Z,27.60
2023-02-11T00:43:59.132Z,26.17
2023-02-11T00:46:26.535Z,26.38
2023-02-11T00:48:57.614Z,27.25
2023-02-11T00:51:27.861Z,26.35
2023-02-11T00:53:55.547Z,26.17
2023-02-11T00:56:23.950Z,26.27
2023-02-11T00:58:51.626Z,24.90
2023-02-11T01:01:20.584Z,24.10
2023-02-11T01:03:51.340Z,24.95
2023-02-11T01:06:20.065Z,24.48
2023-02-11T01:08:47.912Z,25.20
2023-02-11T01:11:21.228Z,24.48
2023-02-11T01:13:53.391Z,24.38
2023-02-11T01:16:22.966Z,25.85
2023-02-11T01:18:53.786Z,24.95
2023-02-11T01:21:21.291Z,23.73
2023-02-11T01:23:52.490Z,23.85
2023-02-11T01:26:20.789Z,24.88
2023-02-11T01:28:48.868Z,25.73
2023-02-11T01:31:19.363Z,25.17
2023-02-11T01:33:46.882Z,25.35
2023-02-11T01:36:14.802Z,26.35
2023-02-11T01:38:44.446Z,23.17
2023-02-11T01:41:15.242Z,25.40
2023-02-11T01:43:49.858Z,25.30
2023-02-11T01:46:50.042Z,24.90
2023-02-11T01:49:36.629Z,26.45
2023-02-11T01:52:20.431Z,23.90
2023-02-11T01:55:18.063Z,25.40
2023-02-11T01:57:52.742Z,25.75
2023-02-11T02:00:33.514Z,25.77
2023-02-11T02:03:14.749Z,24.02
2023-02-11T02:06:36.315Z,25.05
2023-02-11T02:09:18.939Z,24.58
2023-02-11T02:11:46.353Z,25.40
2023-02-11T02:14:17.476Z,25.63
2023-02-11T02:16:46.698Z,24.00
2023-02-11T02:20:15.043Z,25.63
2023-02-11T02:22:59.651Z,25.85
2023-02-11T02:26:19.995Z,24.77
2023-02-11T02:29:46.545Z,23.75
2023-02-11T02:32:43.537Z,24.85
2023-02-11T02:35:38.363Z,23.33
2023-02-11T02:38:17.262Z,24.52
2023-02-11T02:41:02.728Z,24.17
2023-02-11T02:43:31.589Z,25.50
2023-02-11T02:46:15.044Z,24.50
2023-02-11T02:48:43.266Z,25.13
2023-02-11T02:51:52.744Z,27.25
2023-02-11T02:55:00.159Z,25.42
2023-02-11T02:57:59.379Z,24.92
2023-02-11T03:01:18.960Z,23.90
2023-02-11T03:04:12.329Z,24.73
2023-02-11T03:07:22.834Z,24.08
2023-02-11T03:10:19.342Z,23.58
2023-02-11T03:12:48.815Z,24.30
2023-02-11T03:15:21.574Z,24.63
2023-02-11T03:17:53.502Z,24.13
2023-02-11T03:20:24.080Z,24.40
2023-02-11T03:23:03.789Z,24.02
2023-02-11T03:25:42.413Z,25.63
2023-02-11T03:28:31.032Z,26.58
2023-02-11T03:31:48.237Z,24.13
2023-02-11T03:34:42.691Z,24.70
2023-02-11T03:37:36.412Z,24.60
2023-02-11T03:40:12.731Z,24.85
2023-02-11T03:43:05.453Z,25.42
2023-02-11T03:45:33.588Z,26.55
2023-02-11T03:48:13.248Z,26.52
2023-02-11T03:50:45.101Z,25.95
2023-02-11T03:53:16.390Z,26.83
2023-02-11T03:55:47.543Z,24.88
2023-02-11T03:58:15.298Z,26.58
2023-02-11T04:00:46.400Z,25.80
2023-02-11T04:03:14.585Z,27.88
2023-02-11T04:05:44.798Z,26.50
2023-02-11T04:08:12.456Z,27.52
2023-02-11T04:10:41.457Z,27.13
2023-02-11T04:13:08.934Z,24.98
2023-02-11T04:15:36.475Z,26.38
2023-02-11T04:18:07.551Z,25.40
2023-02-11T04:20:35.080Z,25.33
2023-02-11T04:23:02.447Z,24.80
2023-02-11T04:25:29.841Z,24.40
2023-02-11T04:27:57.387Z,24.63
2023-02-11T04:30:25.942Z,24.00
2023-02-11T04:32:54.620Z,23.55
2023-02-11T04:35:22.528Z,24.92
2023-02-11T04:37:50.393Z,24.40
2023-02-11T04:40:18.021Z,23.05
2023-02-11T04:42:45.312Z,23.88
2023-02-11T04:45:12.571Z,24.17
2023-02-11T04:47:39.982Z,24.15
2023-02-11T04:50:07.702Z,25.30
2023-02-11T04:52:35.044Z,24.63
2023-02-11T04:55:02.429Z,23.17
2023-02-11T04:57:30.132Z,23.85
2023-02-11T04:59:57.680Z,23.85
2023-02-11T05:02:25.370Z,24.90
2023-02-11T05:04:53.199Z,23.38
2023-02-11T05:07:20.987Z,24.30
2023-02-11T05:09:48.356Z,23.10
2023-02-11T05:12:15.767Z,24.38
2023-02-11T05:14:43.225Z,25.08
2023-02-11T05:17:10.741Z,23.73
2023-02-11T05:19:38.219Z,24.52
2023-02-11T05:22:05.604Z,24.75
2023-02-11T05:24:33.335Z,25.45
2023-02-11T05:27:01.847Z,23.50
2023-02-11T05:29:29.249Z,25.13
2023-02-11T05:31:56.599Z,23.15
2023-02-11T05:34:24.008Z,25.50
2023-02-11T05:37:17.503Z,24.20
2023-02-11T05:39:45.027Z,23.80
2023-02-11T05:42:12.375Z,24.02
2023-02-11T05:44:39.911Z,24.42
2023-02-11T05:47:08.999Z,23.58
2023-02-11T05:49:36.338Z,23.95
2023-02-11T05:52:04.418Z,23.17
2023-02-11T05:54:32.204Z,24.02
2023-02-11T05:57:01.961Z,23.35
2023-02-11T05:59:29.780Z,24.00
2023-02-11T06:02:00.122Z,24.75
2023-02-11T06:04:28.207Z,23.95
2023-02-11T06:06:55.980Z,25.50
2023-02-11T06:09:26.587Z,23.73
2023-02-11T06:11:54.186Z,23.52
2023-02-11T06:14:22.018Z,23.85
2023-02-11T06:16:49.478Z,25.15
2023-02-11T06:19:17.015Z,23.35
2023-02-11T06:21:44.746Z,23.77
2023-02-11T06:24:13.021Z,23.17
2023-02-11T06:26:40.724Z,23.13
2023-02-11T06:29:08.690Z,23.98
2023-02-11T06:31:39.211Z,23.05
2023-02-11T06:34:08.729Z,22.85
2023-02-11T06:36:39.172Z,23.55
2023-02-11T06:39:14.823Z,22.48
2023-02-11T06:41:44.342Z,23.63
2023-02-11T06:44:11.934Z,25.10
2023-02-11T06:46:39.337Z,23.23
2023-02-11T06:49:06.976Z,23.67
2023-02-11T06:51:34.370Z,24.63
2023-02-11T06:54:01.950Z,23.30
2023-02-11T06:56:30.542Z,24.85
2023-02-11T06:59:01.509Z,23.33
2023-02-11T07:01:29.697Z,23.65
2023-02-11T07:03:57.590Z,23.60
2023-02-11T07:06:28.300Z,23.63
2023-02-11T07:08:58.167Z,23.48
2023-02-11T07:11:29.736Z,23.27
2023-02-11T07:14:08.611Z,24.85
2023-02-11T07:16:39.373Z,24.23
2023-02-11T07:19:07.606Z,24.77
2023-02-11T07:21:38.119Z,23.83
2023-02-11T07:24:11.625Z,24.65
2023-02-11T07:26:42.793Z,24.98
2023-02-11T07:29:12.098Z,23.75
2023-02-11T07:31:47.094Z,26.02
2023-02-11T07:34:14.873Z,22.90
2023-02-11T07:36:43.859Z,24.42
2023-02-11T07:39:13.712Z,24.08
2023-02-11T07:41:41.004Z,24.77
2023-02-11T07:44:08.663Z,25.98
2023-02-11T07:46:36.040Z,25.83
2023-02-11T07:49:03.689Z,25.02
2023-02-11T07:51:31.838Z,24.25
2023-02-11T07:54:01.058Z,26.08
2023-02-11T07:56:30.635Z,23.52
2023-02-11T07:59:03.718Z,24.77
2023-02-11T08:01:31.777Z,24.45
2023-02-11T08:04:02.686Z,26.13
2023-02-11T08:06:35.243Z,25.00
2023-02-11T08:09:09.652Z,24.42
2023-02-11T08:11:36.984Z,25.92
2023-02-11T08:14:11.095Z,24.30
2023-02-11T08:16:39.359Z,23.65
2023-02-11T08:19:13.367Z,25.00
2023-02-11T08:21:42.399Z,25.52
2023-02-11T08:24:11.142Z,25.60
2023-02-11T08:26:38.663Z,24.20
2023-02-11T08:29:13.593Z,25.08
2023-02-11T08:31:47.023Z,26.05
2023-02-11T08:34:19.061Z,25.80
2023-02-11T08:36:54.095Z,28.02
2023-02-11T08:39:23.390Z,25.00
2023-02-11T08:41:56.755Z,26.15
2023-02-11T08:44:25.252Z,25.20
2023-02-11T08:46:53.753Z,24.88
2023-02-11T08:49:22.196Z,25.02
2023-02-11T08:51:50.294Z,24.88
2023-02-11T08:54:18.294Z,24.40
2023-02-11T08:56:48.953Z,23.48
2023-02-11T08:59:17.916Z,22.98
2023-02-11T09:01:47.367Z,23.77
2023-02-11T09:04:15.397Z,23.25
2023-02-11T09:06:48.051Z,24.38
2023-02-11T09:09:18.220Z,24.30
2023-02-11T09:11:46.246Z,22.73
2023-02-11T09:14:21.918Z,23.40
2023-02-11T09:16:50.858Z,22.17
2023-02-11T09:19:23.266Z,22.83
2023-02-11T09:21:51.361Z,23.10
2023-02-11T09:24:19.696Z,21.38
2023-02-11T09:26:49.972Z,22.17
2023-02-11T09:29:23.841Z,22.63
2023-02-11T09:32:17.348Z,22.45
2023-02-11T09:34:47.792Z,22.60
2023-02-11T09:37:18.448Z,22.15
2023-02-11T09:39:46.831Z,21.95
2023-02-11T09:42:31.519Z,22.35
2023-02-11T09:45:02.605Z,21.85
2023-02-11T09:47:41.507Z,22.17
2023-02-11T09:50:22.139Z,23.02
2023-02-11T09:53:20.976Z,21.08
2023-02-11T09:56:01.591Z,22.35
2023-02-11T09:58:36.142Z,22.75
2023-02-11T10:01:31.076Z,21.38
2023-02-11T10:05:09.969Z,21.75
2023-02-11T10:08:21.016Z,20.77
2023-02-11T10:10:53.310Z,20.65
2023-02-11T10:13:44.119Z,21.45
2023-02-11T10:17:17.821Z,20.48
2023-02-11T10:20:39.178Z,19.90
2023-02-11T10:23:39.587Z,20.95
2023-02-11T10:26:21.493Z,21.85
2023-02-11T10:29:00.507Z,20.70
2023-02-11T10:31:40.553Z,19.85
2023-02-11T10:34:17.287Z,19.88
2023-02-11T10:36:45.863Z,19.30
2023-02-11T10:39:24.501Z,20.02
2023-02-11T10:42:00.877Z,19.10
2023-02-11T10:44:40.932Z,19.55
2023-02-11T10:48:04.557Z,19.92
2023-02-11T10:50:50.815Z,19.27
2023-02-11T10:53:27.352Z,19.38
2023-02-11T10:56:00.326Z,17.98
2023-02-11T10:59:30.952Z,18.45
2023-02-11T11:02:25.015Z,16.80
2023-02-11T11:04:59.323Z,15.98
2023-02-11T11:07:32.224Z,16.88
2023-02-11T11:10:35.582Z,16.60
2023-02-11T11:13:30.060Z,16.00
2023-02-11T11:16:35.937Z,18.13
2023-02-11T11:20:10.727Z,17.08
2023-02-11T11:23:11.331Z,18.25
2023-02-11T11:26:13.268Z,16.98
2023-02-11T11:29:09.672Z,17.13
2023-02-11T11:32:06.674Z,17.75
2023-02-11T11:34:39.727Z,18.15
2023-02-11T11:37:25.627Z,17.17
2023-02-11T11:40:34.671Z,16.98
2023-02-11T11:43:14.364Z,15.93
2023-02-11T11:46:25.895Z,15.60
2023-02-11T11:49:16.558Z,15.88
2023-02-11T11:52:45.535Z,16.38
2023-02-11T11:55:58.708Z,14.95
2023-02-11T11:58:30.776Z,14.98
2023-02-11T12:01:42.339Z,15.57
2023-02-11T12:04:24.341Z,13.30
2023-02-11T12:07:12.859Z,13.68
2023-02-11T12:10:41.938Z,13.57
2023-02-11T12:13:52.656Z,12.68
2023-02-11T12:16:45.505Z,9.80
2023-02-11T12:19:18.652Z,10.60
2023-02-11T12:22:27.109Z,10.85
2023-02-11T12:25:30.304Z,12.52
2023-02-11T12:28:35.285Z,12.02
2023-02-11T12:31:26.848Z,12.50
2023-02-11T12:34:47.290Z,12.18
2023-02-11T12:37:46.462Z,12.80
2023-02-11T12:40:58.800Z,11.60
2023-02-11T12:43:39.992Z,11.90
2023-02-11T12:47:11.698Z,12.02
2023-02-11T12:50:30.666Z,12.65
2023-02-11T12:53:23.010Z,10.93
2023-02-11T12:56:02.554Z,10.95
2023-02-11T12:59:51.078Z,11.55
2023-02-11T13:02:35.424Z,9.85
2023-02-11T13:05:32.412Z,8.68
2023-02-11T13:08:32.171Z,7.70
2023-02-11T13:11:14.351Z,8.75
2023-02-11T13:14:10.185Z,8.07
2023-02-11T13:16:48.634Z,7.65
2023-02-11T13:19:37.014Z,7.95
2023-02-11T13:22:31.581Z,7.97
2023-02-11T13:25:42.432Z,8.32
2023-02-11T13:28:40.845Z,7.18
2023-02-11T13:31:13.593Z,7.38
2023-02-11T13:33:44.694Z,7.18
2023-02-11T13:36:22.427Z,7.65
2023-02-11T13:48:27.478Z,7.50
2023-02-11T13:52:01.917Z,7.90
2023-02-11T13:55:27.802Z,7.75
2023-02-11T14:04:33.401Z,8.68
2023-02-11T14:18:47.042Z,10.38
2023-02-11T14:21:29.585Z,11.45
2023-02-11T14:24:02.522Z,11.63
2023-02-11T14:26:55.126Z,11.77
2023-02-11T14:29:40.821Z,10.88
2023-02-11T14:32:38.809Z,11.45
2023-02-11T14:35:29.514Z,11.38
2023-02-11T14:38:23.800Z,11.88
2023-02-11T14:41:20.825Z,11.55
2023-02-11T14:44:02.268Z,12.02
2023-02-11T14:46:30.788Z,12.40
2023-02-11T14:49:03.720Z,12.88
2023-02-11T14:51:41.361Z,13.90
2023-02-11T14:54:24.019Z,13.20
2023-02-11T14:57:18.165Z,13.85
2023-02-11T14:59:59.478Z,15.00
2023-02-11T15:02:38.956Z,14.15
2023-02-11T15:05:29.049Z,14.63
2023-02-11T15:08:00.773Z,12.93
2023-02-11T15:10:44.337Z,14.05
2023-02-11T15:13:27.171Z,13.75
2023-02-11T15:16:25.143Z,13.30
2023-02-11T15:19:01.771Z,13.15
2023-02-11T15:21:34.732Z,12.98
2023-02-11T15:24:28.650Z,12.70
2023-02-11T15:27:12.723Z,13.55
2023-02-11T15:29:46.548Z,12.90
2023-02-11T15:32:25.632Z,14.30
2023-02-11T15:34:56.809Z,13.23
2023-02-11T15:37:32.387Z,14.07
2023-02-11T15:40:23.139Z,14.02
2023-02-11T15:43:09.884Z,14.20
2023-02-11T15:45:45.312Z,13.13
2023-02-11T15:48:38.568Z,13.38
2023-02-11T15:51:35.516Z,13.18
2023-02-11T15:54:16.752Z,14.00
2023-02-11T15:57:03.583Z,13.32
2023-02-11T15:59:46.381Z,12.57
2023-02-11T16:02:31.004Z,13.05
2023-02-11T16:05:09.752Z,13.63
2023-02-11T16:07:50.978Z,13.15
2023-02-11T16:10:35.237Z,12.68
2023-02-11T16:13:08.327Z,14.10
2023-02-11T16:15:38.324Z,13.23
2023-02-11T16:18:38.269Z,12.65
2023-02-11T16:21:18.317Z,12.18
2023-02-11T16:23:58.242Z,13.75
2023-02-11T16:26:50.555Z,13.30
2023-02-11T16:29:28.053Z,14.10
2023-02-11T16:32:23.752Z,14.07
2023-02-11T16:35:00.980Z,14.23
2023-02-11T16:37:28.728Z,14.25
2023-02-11T16:39:59.093Z,15.00
2023-02-11T16:42:26.444Z,14.88
2023-02-11T16:44:53.957Z,14.30
2023-02-11T16:47:28.080Z,14.13
2023-02-11T16:49:57.176Z,14.20
2023-02-11T16:52:25.675Z,16.67
2023-02-11T16:54:53.608Z,15.18
2023-02-11T16:57:26.931Z,16.10
2023-02-11T16:59:55.672Z,16.92
2023-02-11T17:02:30.842Z,15.70
2023-02-11T17:05:03.004Z,15.38
2023-02-11T17:07:30.989Z,16.13
2023-02-11T17:09:58.568Z,15.32
2023-02-11T17:12:26.124Z,15.60
2023-02-11T17:14:54.463Z,16.35
2023-02-11T17:17:24.752Z,15.23
2023-02-11T17:19:51.975Z,16.10
2023-02-11T17:22:19.382Z,16.48
2023-02-11T17:24:46.531Z,16.83
2023-02-11T17:27:14.027Z,16.65
2023-02-11T17:29:41.670Z,17.50
2023-02-11T17:32:09.477Z,16.25
2023-02-11T17:34:36.964Z,16.75
2023-02-11T17:37:09.688Z,16.75
2023-02-11T17:39:40.501Z,16.77
2023-02-11T17:42:11.720Z,16.63
2023-02-11T17:44:39.058Z,16.13
2023-02-11T17:47:06.500Z,16.73
2023-02-11T17:49:33.986Z,16.67
2023-02-11T17:52:01.506Z,16.48
2023-02-11T17:54:28.948Z,16.90
2023-02-11T17:56:58.309Z,17.13
2023-02-11T17:59:26.512Z,17.02
2023-02-11T18:01:54.074Z,17.88
2023-02-11T18:04:25.011Z,16.70
2023-02-11T18:06:58.908Z,17.27
2023-02-11T18:09:27.167Z,17.05
2023-02-11T18:11:55.368Z,18.60
2023-02-11T18:14:32.442Z,19.40
2023-02-11T18:17:00.286Z,18.45
2023-02-11T18:19:30.617Z,18.77
2023-02-11T18:22:01.065Z,19.13
2023-02-11T18:24:28.951Z,19.92
2023-02-11T18:27:01.377Z,18.75
2023-02-11T18:29:29.711Z,18.65
2023-02-11T18:31:58.060Z,20.83
2023-02-11T18:34:26.328Z,19.92
2023-02-11T18:36:54.194Z,20.80
2023-02-11T18:39:24.374Z,19.60
2023-02-11T18:41:54.647Z,20.20
2023-02-11T18:44:24.022Z,32.03
2023-02-11T18:46:52.937Z,29.85
2023-02-11T18:49:21.182Z,26.23
2023-02-11T18:51:52.215Z,25.58
2023-02-11T18:54:22.455Z,23.17
2023-02-11T18:56:50.063Z,20.05
2023-02-11T18:59:17.282Z,19.95
2023-02-11T19:01:46.922Z,20.42
2023-02-11T19:04:19.668Z,19.20
2023-02-11T19:06:51.625Z,20.95
2023-02-11T19:09:23.049Z,20.00
2023-02-11T19:11:50.900Z,20.42
2023-02-11T19:14:25.812Z,19.77
2023-02-11T19:16:59.587Z,20.55
2023-02-11T19:19:35.494Z,21.27
2023-02-11T19:22:08.573Z,20.70
2023-02-11T19:24:39.553Z,20.25
2023-02-11T19:27:06.984Z,20.00
2023-02-11T19:29:35.209Z,20.98
2023-02-11T19:32:07.048Z,24.27
2023-02-11T19:34:43.323Z,23.17
2023-02-11T19:37:15.506Z,21.33
2023-02-11T19:39:44.414Z,21.85
2023-02-11T19:42:13.079Z,20.45
2023-02-11T19:44:40.306Z,24.63
2023-02-11T19:47:07.900Z,28.02
2023-02-11T19:49:35.722Z,22.85
2023-02-11T19:52:03.661Z,22.27
2023-02-11T19:54:31.089Z,21.10
2023-02-11T19:56:58.955Z,21.38
2023-02-11T19:59:26.888Z,23.17
2023-02-11T20:01:54.501Z,25.85
2023-02-11T20:04:22.091Z,30.45
2023-02-11T20:06:49.511Z,31.08
2023-02-11T20:09:17.038Z,28.75
2023-02-11T20:11:44.783Z,27.65
2023-02-11T20:14:16.993Z,27.85
2023-02-11T20:16:49.005Z,27.92
2023-02-11T20:19:21.916Z,26.58
2023-02-11T20:21:55.815Z,26.95
2023-02-11T20:24:25.246Z,26.42
2023-02-11T20:26:57.124Z,24.00
2023-02-11T20:29:25.863Z,24.73
2023-02-11T20:31:54.716Z,28.00
2023-02-11T20:34:22.443Z,24.80
2023-02-11T20:36:53.096Z,24.52
2023-02-11T20:39:23.693Z,27.00
2023-02-11T20:41:57.641Z,26.05
2023-02-11T20:44:27.397Z,25.45
2023-02-11T20:46:57.945Z,25.75
2023-02-11T20:49:26.892Z,24.30
2023-02-11T20:51:55.570Z,24.00
2023-02-11T20:54:24.416Z,24.50
2023-02-11T20:56:54.078Z,26.38
2023-02-11T20:59:21.432Z,27.08
2023-02-11T21:01:56.033Z,28.08
2023-02-11T21:04:35.793Z,24.48
2023-02-11T21:07:03.166Z,22.98
2023-02-11T21:09:33.284Z,23.02
2023-02-11T21:12:02.321Z,21.73
2023-02-11T21:14:31.195Z,21.35
2023-02-11T21:17:04.159Z,22.70
2023-02-11T21:19:31.394Z,22.25
2023-02-11T21:22:00.615Z,25.08
2023-02-11T21:24:28.218Z,23.00
2023-02-11T21:26:56.284Z,22.08
2023-02-11T21:29:23.569Z,24.15
2023-02-11T21:31:51.446Z,21.63
2023-02-11T21:34:20.797Z,21.77
2023-02-11T21:36:51.148Z,21.15
2023-02-11T21:39:20.248Z,21.42
2023-02-11T21:41:47.827Z,22.15
2023-02-11T21:44:15.321Z,20.60
2023-02-11T21:46:42.645Z,22.42
2023-02-11T21:49:10.198Z,23.83
2023-02-11T21:51:37.471Z,23.33
2023-02-11T21:54:05.144Z,22.92
2023-02-11T21:56:35.121Z,22.98
2023-02-11T21:59:02.564Z,23.17
2023-02-11T22:01:35.559Z,23.27
2023-02-11T22:04:03.851Z,22.95
2023-02-11T22:06:37.480Z,23.90
2023-02-11T22:09:11.144Z,24.13
2023-02-11T22:11:38.723Z,23.92
2023-02-11T22:14:06.404Z,23.38
2023-02-11T22:16:33.748Z,22.30
2023-02-11T22:19:02.560Z,21.67
2023-02-11T22:21:30.422Z,23.10
2023-02-11T22:24:00.346Z,21.63
2023-02-11T22:26:28.505Z,22.90
2023-02-11T22:28:57.531Z,22.45
2023-02-11T22:31:33.458Z,23.27
2023-02-11T22:34:04.699Z,22.63
2023-02-11T22:36:40.402Z,23.23
2023-02-11T22:39:14.459Z,24.13
2023-02-11T22:44:14.077Z,23.45
2023-02-11T22:46:41.282Z,23.45
2023-02-11T22:49:10.343Z,23.95
2023-02-11T22:51:39.932Z,24.63
2023-02-11T22:54:14.673Z,23.65
2023-02-11T22:56:42.944Z,23.30
2023-02-11T22:59:15.405Z,22.75
2023-02-11T23:01:43.568Z,22.58
2023-02-11T23:04:16.084Z,20.42
2023-02-11T23:09:14.902Z,24.70
2023-02-11T23:11:42.885Z,23.73
2023-02-11T23:14:12.175Z,22.75
2023-02-11T23:16:40.099Z,22.73
2023-02-11T23:19:10.399Z,22.00
2023-02-11T23:21:39.943Z,22.83
2023-02-11T23:24:17.292Z,23.83
2023-02-11T23:26:45.172Z,22.38
2023-02-11T23:29:13.109Z,23.02
2023-02-11T23:31:45.213Z,24.17
2023-02-11T23:34:17.211Z,23.55
2023-02-11T23:36:44.720Z,23.52
2023-02-11T23:39:15.922Z,23.25
2023-02-11T23:41:43.436Z,22.48
2023-02-11T23:44:11.939Z,23.08
2023-02-11T23:46:39.500Z,22.52
2023-02-11T23:49:10.302Z,23.25
2023-02-11T23:51:37.581Z,23.17
2023-02-11T23:54:04.921Z,23.05
2023-02-11T23:56:32.337Z,23.75
2023-02-11T23:58:59.756Z,22.13
